createdAt,value
2023-05-18T00:01:21.871Z,16.41
2023-05-18T00:03:48.958Z,16.41
2023-05-18T00:06:16.998Z,16.40
2023-05-18T00:08:43.786Z,16.40
2023-05-18T00:11:11.118Z,16.38
2023-05-18T00:13:38.032Z,16.37
2023-05-18T00:16:04.911Z,16.36
2023-05-18T00:18:33.616Z,16.33
2023-05-18T00:21:01.379Z,16.31
2023-05-18T00:23:30.274Z,16.28
2023-05-18T00:25:58.172Z,16.27
2023-05-18T00:28:25.284Z,16.25
2023-05-18T00:30:55.663Z,16.25
2023-05-18T00:33:22.638Z,16.24
2023-05-18T00:35:50.041Z,16.22
2023-05-18T00:38:17.080Z,16.21
2023-05-18T00:40:44.604Z,16.20
2023-05-18T00:43:12.649Z,16.19
2023-05-18T00:45:40.124Z,16.17
2023-05-18T00:48:07.443Z,16.15
2023-05-18T00:50:35.727Z,16.13
2023-05-18T00:53:02.485Z,16.11
2023-05-18T00:55:29.458Z,16.09
2023-05-18T00:57:56.822Z,16.06
2023-05-18T01:00:23.813Z,16.04
2023-05-18T01:02:52.500Z,16.02
2023-05-18T01:05:21.642Z,16.00
2023-05-18T01:07:49.839Z,15.97
2023-05-18T01:10:18.100Z,15.93
2023-05-18T01:12:53.131Z,15.89
2023-05-18T01:15:27.417Z,15.85
2023-05-18T01:18:00.023Z,15.80
2023-05-18T01:20:49.393Z,15.75
2023-05-18T01:23:29.034Z,15.69
2023-05-18T01:25:56.098Z,15.64
2023-05-18T01:28:28.365Z,15.59
2023-05-18T01:30:55.445Z,15.53
2023-05-18T01:33:24.104Z,15.49
2023-05-18T01:35:51.388Z,15.44
2023-05-18T01:38:27.747Z,15.39
2023-05-18T01:41:16.437Z,15.36
2023-05-18T01:43:54.333Z,15.33
2023-05-18T01:46:25.233Z,15.30
2023-05-18T01:48:54.607Z,15.26
2023-05-18T01:51:21.421Z,15.24
2023-05-18T01:53:57.704Z,15.22
2023-05-18T01:56:24.680Z,15.20
2023-05-18T01:58:52.657Z,15.19
2023-05-18T02:01:22.179Z,15.17
2023-05-18T02:03:50.095Z,15.15
2023-05-18T02:06:17.013Z,15.12
2023-05-18T02:08:44.260Z,15.11
2023-05-18T02:11:11.514Z,15.08
2023-05-18T02:13:39.679Z,15.06
2023-05-18T02:16:07.536Z,15.03
2023-05-18T02:18:35.740Z,15.02
2023-05-18T02:21:03.802Z,15.00
2023-05-18T02:23:31.852Z,14.97
2023-05-18T02:25:58.731Z,14.95
2023-05-18T02:28:25.529Z,14.94
2023-05-18T02:30:52.431Z,14.94
2023-05-18T02:33:25.624Z,14.93
2023-05-18T02:35:52.875Z,14.94
2023-05-18T02:38:20.731Z,14.95
2023-05-18T02:40:48.823Z,14.96
2023-05-18T02:43:16.725Z,14.99
2023-05-18T02:45:43.538Z,15.03
2023-05-18T02:48:10.826Z,15.05
2023-05-18T02:50:37.721Z,15.08
2023-05-18T02:53:04.906Z,15.11
2023-05-18T02:55:32.085Z,15.15
2023-05-18T02:58:08.087Z,15.20
2023-05-18T03:00:59.795Z,15.27
2023-05-18T03:03:29.226Z,15.32
2023-05-18T03:05:56.094Z,15.38
2023-05-18T03:08:26.213Z,15.44
2023-05-18T03:10:53.306Z,15.50
2023-05-18T03:13:20.568Z,15.58
2023-05-18T03:15:48.710Z,15.64
2023-05-18T03:18:16.688Z,15.71
2023-05-18T03:20:44.246Z,15.78
2023-05-18T03:23:11.511Z,15.84
2023-05-18T03:25:38.866Z,15.92
2023-05-18T03:28:06.544Z,16.00
2023-05-18T03:30:35.151Z,16.08
2023-05-18T03:33:02.923Z,16.16
2023-05-18T03:35:30.558Z,16.23
2023-05-18T03:37:57.543Z,16.31
2023-05-18T03:40:24.669Z,16.38
2023-05-18T03:42:51.615Z,16.45
2023-05-18T03:45:18.618Z,16.53
2023-05-18T03:47:45.773Z,16.61
2023-05-18T03:50:12.879Z,16.71
2023-05-18T03:52:42.189Z,16.81
2023-05-18T03:55:09.026Z,16.91
2023-05-18T03:57:35.892Z,16.99
2023-05-18T04:00:11.203Z,17.07
2023-05-18T04:02:44.254Z,17.16
2023-05-18T04:05:11.503Z,17.23
2023-05-18T04:07:43.331Z,17.31
2023-05-18T04:10:11.522Z,17.41
2023-05-18T04:12:39.620Z,17.49
2023-05-18T04:15:07.556Z,17.58
2023-05-18T04:17:35.317Z,17.67
2023-05-18T04:20:11.078Z,17.74
2023-05-18T04:22:43.018Z,17.81
2023-05-18T04:25:12.649Z,17.87
2023-05-18T04:27:41.224Z,17.97
2023-05-18T04:30:10.953Z,18.03
2023-05-18T04:32:42.216Z,18.10
2023-05-18T04:35:10.308Z,18.15
2023-05-18T04:37:39.816Z,18.21
2023-05-18T04:40:12.259Z,18.29
2023-05-18T04:42:50.077Z,18.36
2023-05-18T04:45:25.508Z,18.45
2023-05-18T04:47:55.389Z,18.52
2023-05-18T04:50:23.121Z,18.61
2023-05-18T04:52:50.460Z,18.67
2023-05-18T04:55:27.332Z,18.72
2023-05-18T04:58:00.932Z,18.79
2023-05-18T05:00:28.817Z,18.88
2023-05-18T05:02:56.394Z,18.97
2023-05-18T05:05:24.135Z,19.05
2023-05-18T05:07:52.081Z,19.10
2023-05-18T05:10:20.302Z,19.15
2023-05-18T05:12:49.716Z,19.22
2023-05-18T05:15:17.902Z,19.34
2023-05-18T05:17:49.195Z,19.42
2023-05-18T05:20:16.949Z,19.49
2023-05-18T05:22:44.046Z,19.57
2023-05-18T05:25:13.453Z,19.67
2023-05-18T05:27:40.785Z,19.77
2023-05-18T05:30:08.508Z,19.91
2023-05-18T05:32:37.040Z,20.04
2023-05-18T05:35:06.755Z,20.17
2023-05-18T05:37:34.770Z,20.33
2023-05-18T05:40:02.830Z,20.48
2023-05-18T05:42:33.183Z,20.63
2023-05-18T05:45:00.483Z,20.75
2023-05-18T05:47:27.916Z,20.83
2023-05-18T05:49:55.240Z,20.91
2023-05-18T05:52:22.630Z,20.99
2023-05-18T05:54:49.549Z,21.03
2023-05-18T05:57:19.652Z,21.06
2023-05-18T05:59:46.566Z,21.18
2023-05-18T06:02:14.375Z,21.30
2023-05-18T06:04:41.310Z,21.35
2023-05-18T06:07:10.479Z,21.40
2023-05-18T06:09:38.142Z,21.53
2023-05-18T06:12:05.676Z,21.68
2023-05-18T06:14:36.976Z,21.85
2023-05-18T06:17:08.317Z,22.01
2023-05-18T06:19:35.240Z,22.30
2023-05-18T06:22:03.302Z,22.58
2023-05-18T06:24:36.595Z,22.92
2023-05-18T06:27:24.487Z,23.44
2023-05-18T06:30:10.450Z,23.58
2023-05-18T06:32:57.004Z,23.48
2023-05-18T06:35:24.381Z,23.34
2023-05-18T06:37:51.194Z,23.32
2023-05-18T06:40:18.179Z,23.33
2023-05-18T06:42:45.734Z,23.31
2023-05-18T06:45:28.056Z,23.30
2023-05-18T06:48:00.683Z,23.40
2023-05-18T06:50:29.344Z,23.66
2023-05-18T06:52:56.264Z,23.78
2023-05-18T06:55:23.064Z,23.87
2023-05-18T06:57:52.443Z,24.10
2023-05-18T07:00:20.292Z,24.11
2023-05-18T07:02:47.201Z,24.07
2023-05-18T07:05:14.667Z,24.04
2023-05-18T07:07:41.961Z,23.96
2023-05-18T07:10:09.986Z,23.90
2023-05-18T07:12:37.800Z,23.82
2023-05-18T07:15:07.691Z,23.69
2023-05-18T07:17:34.704Z,23.68
2023-05-18T07:20:01.725Z,23.67
2023-05-18T07:22:28.979Z,23.67
2023-05-18T07:24:57.990Z,23.67
2023-05-18T07:27:24.769Z,23.68
2023-05-18T07:29:51.656Z,23.65
2023-05-18T07:32:18.549Z,23.65
2023-05-18T07:34:49.062Z,23.70
2023-05-18T07:37:15.862Z,23.72
2023-05-18T07:39:42.855Z,23.77
2023-05-18T07:42:10.830Z,23.87
2023-05-18T07:44:37.697Z,24.02
2023-05-18T07:47:04.968Z,24.13
2023-05-18T07:49:32.097Z,24.22
2023-05-18T07:52:00.120Z,24.22
2023-05-18T07:54:28.936Z,24.36
2023-05-18T07:56:59.118Z,24.55
2023-05-18T07:59:27.302Z,24.67
2023-05-18T08:01:54.552Z,24.71
2023-05-18T08:04:21.284Z,24.71
2023-05-18T08:06:48.228Z,24.67
2023-05-18T08:09:15.101Z,24.62
2023-05-18T08:11:43.041Z,24.47
2023-05-18T08:14:10.084Z,24.45
2023-05-18T08:16:37.282Z,24.40
2023-05-18T08:19:04.309Z,24.35
2023-05-18T08:21:32.688Z,24.40
2023-05-18T08:24:00.082Z,24.50
2023-05-18T08:26:27.372Z,24.79
2023-05-18T08:28:55.057Z,25.12
2023-05-18T08:31:21.879Z,25.29
2023-05-18T08:33:49.585Z,25.46
2023-05-18T08:36:16.752Z,25.55
2023-05-18T08:38:43.813Z,25.68
2023-05-18T08:41:20.564Z,25.69
2023-05-18T08:43:51.835Z,25.52
2023-05-18T08:46:29.552Z,25.44
2023-05-18T08:48:56.585Z,25.28
2023-05-18T08:51:23.728Z,25.23
2023-05-18T08:53:52.132Z,25.13
2023-05-18T08:56:22.592Z,25.13
2023-05-18T08:58:51.048Z,25.07
2023-05-18T09:01:20.582Z,24.98
2023-05-18T09:03:48.909Z,25.03
2023-05-18T09:06:15.693Z,25.08
2023-05-18T09:08:42.717Z,25.02
2023-05-18T09:11:10.000Z,25.02
2023-05-18T09:13:37.271Z,25.08
2023-05-18T09:16:04.543Z,25.16
2023-05-18T09:18:31.525Z,25.12
2023-05-18T09:20:58.215Z,25.11
2023-05-18T09:23:25.111Z,25.10
2023-05-18T09:25:52.013Z,25.00
2023-05-18T09:28:33.856Z,25.01
2023-05-18T09:31:00.872Z,25.03
2023-05-18T09:33:33.557Z,25.10
2023-05-18T09:36:00.549Z,25.12
2023-05-18T09:38:28.361Z,25.06
2023-05-18T09:40:55.154Z,24.90
2023-05-18T09:43:22.025Z,24.82
2023-05-18T09:45:49.021Z,24.94
2023-05-18T09:48:16.036Z,24.95
2023-05-18T09:50:44.496Z,24.98
2023-05-18T09:53:13.119Z,25.06
2023-05-18T09:55:47.555Z,25.17
2023-05-18T09:58:15.186Z,25.22
2023-05-18T10:00:43.537Z,25.18
2023-05-18T10:03:21.479Z,25.20
2023-05-18T10:05:48.470Z,25.13
2023-05-18T10:08:15.788Z,25.16
2023-05-18T10:10:45.200Z,25.20
2023-05-18T10:13:14.332Z,25.12
2023-05-18T10:15:49.017Z,25.10
2023-05-18T10:18:21.295Z,25.15
2023-05-18T10:20:48.862Z,25.25
2023-05-18T10:23:17.266Z,25.32
2023-05-18T10:25:45.270Z,25.34
2023-05-18T10:28:12.210Z,25.37
2023-05-18T10:30:43.332Z,25.31
2023-05-18T10:33:20.728Z,25.22
2023-05-18T10:35:51.985Z,25.15
2023-05-18T10:38:23.432Z,25.13
2023-05-18T10:40:52.101Z,25.14
2023-05-18T10:43:21.928Z,25.09
2023-05-18T10:45:58.980Z,25.03
2023-05-18T10:48:27.363Z,24.86
2023-05-18T10:50:55.318Z,24.89
2023-05-18T10:53:26.420Z,24.95
2023-05-18T10:55:53.551Z,24.95
2023-05-18T10:58:21.842Z,25.00
2023-05-18T11:00:53.790Z,25.00
2023-05-18T11:03:21.978Z,25.04
2023-05-18T11:05:50.785Z,25.11
2023-05-18T11:08:26.237Z,25.19
2023-05-18T11:11:03.962Z,25.14
2023-05-18T11:13:35.083Z,25.22
2023-05-18T11:16:04.801Z,25.19
2023-05-18T11:18:39.485Z,25.15
2023-05-18T11:21:45.982Z,25.23
2023-05-18T11:24:24.266Z,25.22
2023-05-18T11:26:55.940Z,25.17
2023-05-18T11:29:32.177Z,25.08
2023-05-18T11:31:59.119Z,25.06
2023-05-18T11:34:50.091Z,24.98
2023-05-18T11:37:39.397Z,25.06
2023-05-18T11:40:11.430Z,25.15
2023-05-18T11:42:41.525Z,25.14
2023-05-18T11:45:09.892Z,25.19
2023-05-18T11:47:37.318Z,25.24
2023-05-18T11:50:07.066Z,25.31
2023-05-18T11:52:45.462Z,25.21
2023-05-18T11:55:16.728Z,25.21
2023-05-18T11:57:47.124Z,25.21
2023-05-18T12:00:17.908Z,25.16
2023-05-18T12:02:46.230Z,25.16
2023-05-18T12:05:13.612Z,25.20
2023-05-18T12:07:40.875Z,25.24
2023-05-18T12:10:09.899Z,25.32
2023-05-18T12:12:37.859Z,25.38
2023-05-18T12:15:06.621Z,25.36
2023-05-18T12:17:40.400Z,25.20
2023-05-18T12:20:09.228Z,25.12
2023-05-18T12:22:40.425Z,25.07
2023-05-18T12:25:07.875Z,25.01
2023-05-18T12:27:42.247Z,25.05
2023-05-18T12:30:17.212Z,25.11
2023-05-18T12:32:48.379Z,25.15
2023-05-18T12:35:15.356Z,25.19
2023-05-18T12:37:45.253Z,25.26
2023-05-18T12:40:14.135Z,25.33
2023-05-18T12:42:54.254Z,25.34
2023-05-18T12:45:23.195Z,25.31
2023-05-18T12:47:54.864Z,25.28
2023-05-18T12:50:22.951Z,25.17
2023-05-18T12:52:50.234Z,25.13
2023-05-18T12:55:21.196Z,25.03
2023-05-18T12:58:03.934Z,24.97
2023-05-18T13:00:34.423Z,25.01
2023-05-18T13:03:06.534Z,25.06
2023-05-18T13:05:33.585Z,25.10
2023-05-18T13:08:01.333Z,25.01
2023-05-18T13:10:32.468Z,25.04
2023-05-18T13:13:03.185Z,25.05
2023-05-18T13:15:37.373Z,24.99
2023-05-18T13:18:05.324Z,24.83
2023-05-18T13:20:40.357Z,24.76
2023-05-18T13:23:09.120Z,24.68
2023-05-18T13:25:36.288Z,24.61
2023-05-18T13:28:04.654Z,24.57
2023-05-18T13:30:33.440Z,24.53
2023-05-18T13:33:05.573Z,24.50
2023-05-18T13:35:32.756Z,24.46
2023-05-18T13:38:00.130Z,24.42
2023-05-18T13:40:27.008Z,24.39
2023-05-18T13:42:54.018Z,24.33
2023-05-18T13:45:21.165Z,24.28
2023-05-18T13:47:52.911Z,24.24
2023-05-18T13:50:20.425Z,24.20
2023-05-18T13:52:47.681Z,24.17
2023-05-18T13:55:14.729Z,24.15
2023-05-18T13:57:41.882Z,24.14
2023-05-18T14:00:10.812Z,24.14
2023-05-18T14:02:41.195Z,24.13
2023-05-18T14:05:09.171Z,24.13
2023-05-18T14:07:36.764Z,24.16
2023-05-18T14:10:04.823Z,24.20
2023-05-18T14:12:32.033Z,24.23
2023-05-18T14:14:59.231Z,24.26
2023-05-18T14:17:29.403Z,24.30
2023-05-18T14:19:56.766Z,24.34
2023-05-18T14:22:25.754Z,24.37
2023-05-18T14:24:52.911Z,24.39
2023-05-18T14:27:20.028Z,24.40
2023-05-18T14:29:47.364Z,24.41
2023-05-18T14:32:14.157Z,24.43
2023-05-18T14:34:41.535Z,24.46
2023-05-18T14:37:08.541Z,24.48
2023-05-18T14:39:35.724Z,24.48
2023-05-18T14:42:02.749Z,24.46
2023-05-18T14:44:32.764Z,24.44
2023-05-18T14:47:01.087Z,24.40
2023-05-18T14:49:28.056Z,24.40
2023-05-18T14:51:54.878Z,24.39
2023-05-18T14:54:21.994Z,24.39
2023-05-18T14:56:48.787Z,24.38
2023-05-18T14:59:15.795Z,24.40
2023-05-18T15:01:43.016Z,24.40
2023-05-18T15:04:09.874Z,24.39
2023-05-18T15:06:37.168Z,24.39
2023-05-18T15:09:05.755Z,24.39
2023-05-18T15:11:32.531Z,24.40
2023-05-18T15:13:59.560Z,24.39
2023-05-18T15:16:26.513Z,24.38
2023-05-18T15:18:53.515Z,24.37
2023-05-18T15:21:20.507Z,24.36
2023-05-18T15:23:47.286Z,24.34
2023-05-18T15:26:14.472Z,24.34
2023-05-18T15:28:44.329Z,24.35
2023-05-18T15:31:11.186Z,24.32
2023-05-18T15:33:41.708Z,24.30
2023-05-18T15:36:09.633Z,24.29
2023-05-18T15:38:36.977Z,24.26
2023-05-18T15:41:03.823Z,24.25
2023-05-18T15:43:31.259Z,24.21
2023-05-18T15:45:58.274Z,24.18
2023-05-18T15:48:25.362Z,24.15
2023-05-18T15:50:52.132Z,24.12
2023-05-18T15:53:19.540Z,24.08
2023-05-18T15:55:46.508Z,24.06
2023-05-18T15:58:15.505Z,24.00
2023-05-18T16:00:42.267Z,23.95
2023-05-18T16:03:09.164Z,23.90
2023-05-18T16:05:36.274Z,23.85
2023-05-18T16:08:03.180Z,23.81
2023-05-18T16:10:30.816Z,23.76
2023-05-18T16:13:05.086Z,23.73
2023-05-18T16:15:33.586Z,23.68
2023-05-18T16:18:00.761Z,23.64
2023-05-18T16:20:27.834Z,23.60
2023-05-18T16:22:55.137Z,23.55
2023-05-18T16:25:22.929Z,23.50
2023-05-18T16:27:49.904Z,23.45
2023-05-18T16:30:17.415Z,23.41
2023-05-18T16:32:45.351Z,23.36
2023-05-18T16:35:12.366Z,23.32
2023-05-18T16:37:39.438Z,23.28
2023-05-18T16:40:07.467Z,23.23
2023-05-18T16:42:34.446Z,23.18
2023-05-18T16:45:01.593Z,23.13
2023-05-18T16:47:31.621Z,23.08
2023-05-18T16:49:58.682Z,23.03
2023-05-18T16:52:25.838Z,22.98
2023-05-18T16:54:52.780Z,22.93
2023-05-18T16:57:19.554Z,22.88
2023-05-18T16:59:46.296Z,22.84
2023-05-18T17:02:13.666Z,22.79
2023-05-18T17:04:49.091Z,22.74
2023-05-18T17:07:16.112Z,22.71
2023-05-18T17:09:43.013Z,22.66
2023-05-18T17:12:10.647Z,22.63
2023-05-18T17:14:38.895Z,22.58
2023-05-18T17:17:06.727Z,22.53
2023-05-18T17:19:34.460Z,22.49
2023-05-18T17:22:03.314Z,22.46
2023-05-18T17:24:30.740Z,22.41
2023-05-18T17:26:57.632Z,22.37
2023-05-18T17:29:24.971Z,22.32
2023-05-18T17:31:51.896Z,22.28
2023-05-18T17:34:18.824Z,22.21
2023-05-18T17:36:46.001Z,22.15
2023-05-18T17:39:15.157Z,22.08
2023-05-18T17:41:43.234Z,22.03
2023-05-18T17:44:13.484Z,21.97
2023-05-18T17:46:40.803Z,21.92
2023-05-18T17:49:07.806Z,21.86
2023-05-18T17:51:34.725Z,21.82
2023-05-18T17:54:01.651Z,21.78
2023-05-18T17:56:29.984Z,21.74
2023-05-18T17:58:58.397Z,21.71
2023-05-18T18:01:26.335Z,21.67
2023-05-18T18:03:53.596Z,21.65
2023-05-18T18:06:23.814Z,21.61
2023-05-18T18:08:55.341Z,21.58
2023-05-18T18:11:23.556Z,21.54
2023-05-18T18:13:50.608Z,21.50
2023-05-18T18:16:17.843Z,21.47
2023-05-18T18:18:45.067Z,21.44
2023-05-18T18:21:11.901Z,21.41
2023-05-18T18:23:39.541Z,21.38
2023-05-18T18:26:06.616Z,21.35
2023-05-18T18:28:34.371Z,21.33
2023-05-18T18:31:02.111Z,21.30
2023-05-18T18:33:30.115Z,21.27
2023-05-18T18:35:57.046Z,21.24
2023-05-18T18:38:26.681Z,21.20
2023-05-18T18:41:00.236Z,21.18
2023-05-18T18:43:27.836Z,21.16
2023-05-18T18:45:56.379Z,21.12
2023-05-18T18:48:23.912Z,21.09
2023-05-18T18:50:51.724Z,21.07
2023-05-18T18:53:18.506Z,21.04
2023-05-18T18:55:45.554Z,21.02
2023-05-18T18:58:12.353Z,20.98
2023-05-18T19:00:39.187Z,20.96
2023-05-18T19:03:06.327Z,20.93
2023-05-18T19:05:33.565Z,20.88
2023-05-18T19:08:01.344Z,20.85
2023-05-18T19:10:28.879Z,20.81
2023-05-18T19:12:58.825Z,20.79
2023-05-18T19:15:25.662Z,20.76
2023-05-18T19:17:53.132Z,20.71
2023-05-18T19:20:20.385Z,20.68
2023-05-18T19:22:47.504Z,20.64
2023-05-18T19:25:14.492Z,20.62
2023-05-18T19:27:41.565Z,20.58
2023-05-18T19:30:10.327Z,20.54
2023-05-18T19:32:37.735Z,20.52
2023-05-18T19:35:04.692Z,20.50
2023-05-18T19:37:31.648Z,20.46
2023-05-18T19:39:58.532Z,20.44
2023-05-18T19:42:25.691Z,20.40
2023-05-18T19:44:52.657Z,20.37
2023-05-18T19:47:19.423Z,20.35
2023-05-18T19:49:46.862Z,20.32
2023-05-18T19:52:13.785Z,20.29
2023-05-18T19:54:40.602Z,20.26
2023-05-18T19:57:07.415Z,20.23
2023-05-18T19:59:34.171Z,20.22
2023-05-18T20:02:04.280Z,20.19
2023-05-18T20:04:32.898Z,20.18
2023-05-18T20:07:00.730Z,20.15
2023-05-18T20:09:27.994Z,20.13
2023-05-18T20:11:55.453Z,20.09
2023-05-18T20:14:23.040Z,20.07
2023-05-18T20:16:55.045Z,20.06
2023-05-18T20:19:22.225Z,20.04
2023-05-18T20:21:49.495Z,20.02
2023-05-18T20:24:16.436Z,20.01
2023-05-18T20:26:43.521Z,19.99
2023-05-18T20:29:10.417Z,19.98
2023-05-18T20:31:37.965Z,19.96
2023-05-18T20:34:06.366Z,19.95
2023-05-18T20:36:35.294Z,19.93
2023-05-18T20:39:02.255Z,19.91
2023-05-18T20:41:29.408Z,19.90
2023-05-18T20:43:56.736Z,19.88
2023-05-18T20:46:24.209Z,19.86
2023-05-18T20:48:54.438Z,19.85
2023-05-18T20:51:22.831Z,19.84
2023-05-18T20:53:50.090Z,19.82
2023-05-18T20:56:17.654Z,19.81
2023-05-18T20:58:49.411Z,19.81
2023-05-18T21:01:16.556Z,19.80
2023-05-18T21:03:44.800Z,19.79
2023-05-18T21:06:14.573Z,19.79
2023-05-18T21:08:41.924Z,19.78
2023-05-18T21:11:09.388Z,19.76
2023-05-18T21:13:36.541Z,19.75
2023-05-18T21:16:07.808Z,19.72
2023-05-18T21:18:34.781Z,19.70
2023-05-18T21:21:01.861Z,19.68
2023-05-18T21:23:29.146Z,19.67
2023-05-18T21:25:56.619Z,19.65
2023-05-18T21:28:26.074Z,19.63
2023-05-18T21:30:54.249Z,19.61
2023-05-18T21:33:21.235Z,19.59
2023-05-18T21:35:48.630Z,19.56
2023-05-18T21:38:16.684Z,19.54
2023-05-18T21:40:44.095Z,19.52
2023-05-18T21:43:12.209Z,19.49
2023-05-18T21:45:39.118Z,19.46
2023-05-18T21:48:06.421Z,19.42
2023-05-18T21:50:34.225Z,19.40
2023-05-18T21:53:05.055Z,19.37
2023-05-18T21:55:32.295Z,19.34
2023-05-18T21:57:59.476Z,19.30
2023-05-18T22:00:26.398Z,19.26
2023-05-18T22:02:53.267Z,19.22
2023-05-18T22:05:19.977Z,19.18
2023-05-18T22:07:47.372Z,19.14
2023-05-18T22:10:14.257Z,19.11
2023-05-18T22:12:42.915Z,19.09
2023-05-18T22:15:10.123Z,19.06
2023-05-18T22:17:38.474Z,19.03
2023-05-18T22:20:09.020Z,19.00
2023-05-18T22:22:36.467Z,18.98
2023-05-18T22:25:03.400Z,18.96
2023-05-18T22:27:31.167Z,18.94
2023-05-18T22:29:58.606Z,18.93
2023-05-18T22:32:25.503Z,18.91
2023-05-18T22:34:53.014Z,18.89
2023-05-18T22:37:19.866Z,18.87
2023-05-18T22:39:46.834Z,18.85
2023-05-18T22:42:13.784Z,18.84
2023-05-18T22:44:40.733Z,18.83
2023-05-18T22:47:08.917Z,18.81
2023-05-18T22:49:36.281Z,18.80
2023-05-18T22:52:03.939Z,18.78
2023-05-18T22:54:30.929Z,18.77
2023-05-18T22:56:58.946Z,18.76
2023-05-18T22:59:28.045Z,18.74
2023-05-18T23:01:54.836Z,18.73
2023-05-18T23:04:21.778Z,18.71
2023-05-18T23:06:49.081Z,18.69
2023-05-18T23:09:16.485Z,18.68
2023-05-18T23:11:47.690Z,18.67
2023-05-18T23:14:14.792Z,18.66
2023-05-18T23:16:41.921Z,18.64
2023-05-18T23:19:09.758Z,18.63
2023-05-18T23:21:36.585Z,18.62
2023-05-18T23:24:04.828Z,18.60
2023-05-18T23:26:33.196Z,18.58
2023-05-18T23:29:00.826Z,18.56
2023-05-18T23:31:28.515Z,18.54
2023-05-18T23:33:55.541Z,18.52
2023-05-18T23:36:22.388Z,18.51
2023-05-18T23:38:49.261Z,18.49
2023-05-18T23:41:16.019Z,18.47
2023-05-18T23:43:44.644Z,18.45
2023-05-18T23:46:12.695Z,18.43
2023-05-18T23:48:40.185Z,18.42
2023-05-18T23:51:07.095Z,18.42
2023-05-18T23:53:33.993Z,18.40
2023-05-18T23:56:01.055Z,18.40
2023-05-18T23:58:29.191Z,18.40
